Monticello, Indiana
Current Conditions -  °F | °C
As of 3:15 AM on Thursday 18 Dec 2014 (Local Time) from KMCX Reporting Station
Overcast Overcast  
Wind Chill: 25°   Ceiling: 2100
Heat Index: 25°   Visibility: 10mi
Dew Point: 19°   Wind: 3mph
Humidity: 78%   Direction: 260°W
Pressure: 30.28"   Gusts: NA
Location:  40.76°N, 86.77°W
Report Text: KMCX 180815Z AUTO 26003KT 10SM OVC021 M04/M07 A3028 RMK AO2 T10401073
Loading
Personal Weather Stations






























Interactive Weather Map New forecast layout! Learn more

10-Day Weather Forecast

Advertisements
Track Severe Weather on mobile